Time;durP1;ratioP1;P1;durP2;ratioP2;P2;SDS_P1;SDS_P2;PMS_P1;PMS_P2;Temp;Humidity;BMP_temperature;BMP_pressure;BME280_temperature;BME280_humidity;BME280_pressure;Samples;Min_cycle;Max_cycle;Signal;HPM_P1;HPM_P2
2020/12/09 00:01:15;;;;;;;;;;;;;;;22.79;22.12;97995.75;5021426;28;659;-75
2020/12/09 00:03:40;;;;;;;;;;;;;;;22.64;22.30;97988.97;5020822;28;1911;-76
2020/12/09 00:06:06;;;;;;;;;;;;;;;22.70;22.02;98004.19;5021236;28;940;-75
2020/12/09 00:08:31;;;;;;;;;;;;;;;22.77;22.25;98003.16;5020453;28;861;-75
2020/12/09 00:10:57;;;;;;;;;;;;;;;22.26;22.63;97997.41;5021310;28;1001;-75
2020/12/09 00:13:23;;;;;;;;;;;;;;;21.74;23.24;97990.72;5020119;28;733;-75
2020/12/09 00:15:48;;;;;;;;;;;;;;;21.76;23.40;97999.59;5021013;28;699;-75
2020/12/09 00:18:14;;;;;;;;;;;;;;;22.02;23.23;98003.31;5020657;28;672;-75
2020/12/09 00:20:39;;;;;;;;;;;;;;;22.30;22.82;98003.78;5020904;28;929;-75
2020/12/09 00:23:05;;;;;;;;;;;;;;;22.52;22.23;98009.59;5020271;28;1899;-75
2020/12/09 00:25:30;;;;;;;;;;;;;;;22.69;22.05;98008.28;5020719;28;799;-75
2020/12/09 00:27:55;;;;;;;;;;;;;;;22.72;22.16;98012.22;5020495;28;1036;-75
2020/12/09 00:30:22;;;;;;;;;;;;;;;22.65;22.09;98018.91;5020725;28;680;-75
2020/12/09 00:32:47;;;;;;;;;;;;;;;22.62;22.16;98025.50;5020617;28;685;-75
2020/12/09 00:35:12;;;;;;;;;;;;;;;21.74;23.17;98024.72;5019651;28;867;-75
2020/12/09 00:37:38;;;;;;;;;;;;;;;21.39;23.79;98034.13;5020804;28;611;-75
2020/12/09 00:40:04;;;;;;;;;;;;;;;21.74;23.51;98030.38;5020536;28;823;-75
2020/12/09 00:42:30;;;;;;;;;;;;;;;22.35;22.77;98040.84;5020244;28;905;-75
2020/12/09 00:44:56;;;;;;;;;;;;;;;22.40;22.47;98052.91;5020365;28;1906;-75
2020/12/09 00:47:21;;;;;;;;;;;;;;;22.54;22.60;98052.50;5003275;28;1125;-75
2020/12/09 00:52:32;;;;;;;;;;;;;;;22.73;21.91;98057.16;5003640;28;1248;-75
2020/12/09 00:54:58;;;;;;;;;;;;;;;22.31;22.46;98054.34;5006416;28;1207;-75
2020/12/09 00:57:23;;;;;;;;;;;;;;;21.71;23.37;98061.63;5024180;28;935;-75
2020/12/09 00:59:49;;;;;;;;;;;;;;;21.45;23.74;98057.84;5024430;28;933;-75
2020/12/09 01:02:16;;;;;;;;;;;;;;;21.95;23.37;98065.03;5007262;28;1239;-75
2020/12/09 01:04:42;;;;;;;;;;;;;;;22.26;22.68;98060.56;5007770;28;1961;-75
2020/12/09 01:07:07;;;;;;;;;;;;;;;22.59;22.41;98060.44;5024483;28;730;-75
2020/12/09 01:09:33;;;;;;;;;;;;;;;22.70;22.36;98055.22;5024089;28;1117;-75
2020/12/09 01:12:02;;;;;;;;;;;;;;;22.75;21.95;98057.50;5024147;28;837;-75
2020/12/09 01:14:28;;;;;;;;;;;;;;;22.79;22.20;98046.81;5023577;28;1128;-75
2020/12/09 01:16:53;;;;;;;;;;;;;;;22.38;22.40;98050.50;5024124;28;643;-75
2020/12/09 01:19:19;;;;;;;;;;;;;;;21.77;23.38;98051.38;5024071;28;614;-75
2020/12/09 01:21:44;;;;;;;;;;;;;;;21.81;23.09;98061.38;5024031;28;611;-75
2020/12/09 01:24:10;;;;;;;;;;;;;;;22.19;23.12;98060.75;5023706;28;2297;-76
2020/12/09 01:26:35;;;;;;;;;;;;;;;22.38;22.58;98061.03;5023864;28;938;-75
2020/12/09 01:29:01;;;;;;;;;;;;;;;22.53;22.34;98056.53;5023674;28;1095;-76
2020/12/09 01:31:26;;;;;;;;;;;;;;;22.64;22.37;98059.88;5024174;28;701;-75
2020/12/09 01:33:51;;;;;;;;;;;;;;;22.13;22.94;98056.09;5024116;28;665;-74
2020/12/09 01:36:20;;;;;;;;;;;;;;;21.19;24.00;98057.66;5023791;28;639;-75
2020/12/09 01:38:46;;;;;;;;;;;;;;;21.47;24.01;98041.22;5023395;28;856;-75
2020/12/09 01:41:11;;;;;;;;;;;;;;;22.13;22.96;98037.06;5023431;28;954;-75
2020/12/09 01:43:44;;;;;;;;;;;;;;;22.42;22.82;98039.06;5023482;28;1898;-75
2020/12/09 01:46:13;;;;;;;;;;;;;;;22.44;22.69;98042.25;5023735;28;674;-75
2020/12/09 01:48:38;;;;;;;;;;;;;;;22.50;22.57;98046.13;5022834;28;623;-75
2020/12/09 01:51:04;;;;;;;;;;;;;;;22.72;22.21;98041.38;5023811;28;599;-75
2020/12/09 01:53:30;;;;;;;;;;;;;;;22.56;22.34;98038.63;5023207;28;612;-75
2020/12/09 01:55:55;;;;;;;;;;;;;;;21.96;23.25;98035.47;5023105;28;722;-75
2020/12/09 01:58:21;;;;;;;;;;;;;;;21.78;23.50;98028.25;5022915;28;860;-75
2020/12/09 02:00:46;;;;;;;;;;;;;;;22.11;22.94;98031.03;5023444;28;881;-75
2020/12/09 02:03:12;;;;;;;;;;;;;;;22.58;22.46;98036.13;5023018;28;1898;-75
2020/12/09 02:05:38;;;;;;;;;;;;;;;22.63;22.39;98032.75;5023269;28;638;-75
2020/12/09 02:08:03;;;;;;;;;;;;;;;22.65;22.26;98035.94;5023207;28;705;-75
2020/12/09 02:10:29;;;;;;;;;;;;;;;22.61;22.10;98041.72;5023125;28;615;-75
2020/12/09 02:12:54;;;;;;;;;;;;;;;22.90;21.71;98040.06;5023235;28;890;-75
2020/12/09 02:15:20;;;;;;;;;;;;;;;22.09;22.95;98042.00;5022864;28;865;-75
2020/12/09 02:17:49;;;;;;;;;;;;;;;21.73;23.32;98057.13;5022895;28;895;-75
2020/12/09 02:20:14;;;;;;;;;;;;;;;21.81;23.39;98058.53;5022888;28;651;-75
2020/12/09 02:22:40;;;;;;;;;;;;;;;21.65;23.59;98061.34;5022975;28;660;-75
2020/12/09 02:25:05;;;;;;;;;;;;;;;21.26;24.17;98063.13;5022870;28;1918;-75
2020/12/09 02:27:30;;;;;;;;;;;;;;;20.98;24.69;98063.78;5022555;28;1122;-75
2020/12/09 02:29:56;;;;;;;;;;;;;;;21.06;24.75;98059.56;5022315;28;1093;-75
2020/12/09 02:32:21;;;;;;;;;;;;;;;21.21;24.40;98060.03;5022710;28;886;-75
2020/12/09 02:34:47;;;;;;;;;;;;;;;20.98;24.62;98069.44;5022676;28;635;-75
2020/12/09 02:37:12;;;;;;;;;;;;;;;20.91;24.76;98058.31;5021853;28;849;-75
2020/12/09 02:39:38;;;;;;;;;;;;;;;21.18;24.42;98067.34;5022478;28;576;-75
2020/12/09 02:42:03;;;;;;;;;;;;;;;21.10;24.46;98057.44;5022530;28;1012;-75
2020/12/09 02:44:29;;;;;;;;;;;;;;;20.98;24.69;98075.09;5021991;28;1987;-76
2020/12/09 02:46:54;;;;;;;;;;;;;;;21.00;24.54;98078.31;5022573;28;953;-75
2020/12/09 02:49:22;;;;;;;;;;;;;;;20.84;25.04;98069.78;5022262;28;670;-75
2020/12/09 02:51:47;;;;;;;;;;;;;;;20.45;25.18;98079.88;5022531;28;739;-75
2020/12/09 02:54:13;;;;;;;;;;;;;;;20.71;25.08;98081.75;5022327;28;598;-75
2020/12/09 02:56:38;;;;;;;;;;;;;;;20.04;25.82;98086.72;5022007;28;940;-75
2020/12/09 02:59:03;;;;;;;;;;;;;;;20.44;25.29;98081.91;5021746;28;819;-75
2020/12/09 03:01:31;;;;;;;;;;;;;;;20.74;25.21;98082.94;5022606;28;987;-75
2020/12/09 03:03:57;;;;;;;;;;;;;;;20.78;25.07;98073.13;5021903;28;1980;-75
2020/12/09 03:06:22;;;;;;;;;;;;;;;20.53;25.20;98089.84;5022170;28;706;-75
2020/12/09 03:08:48;;;;;;;;;;;;;;;20.41;25.30;98084.78;5021529;28;852;-75
2020/12/09 03:11:13;;;;;;;;;;;;;;;20.51;25.13;98086.63;5021884;28;844;-75
2020/12/09 03:13:39;;;;;;;;;;;;;;;20.53;25.24;98081.34;5021775;28;963;-75
2020/12/09 03:16:04;;;;;;;;;;;;;;;20.60;24.95;98089.66;5021415;28;630;-75
2020/12/09 03:18:30;;;;;;;;;;;;;;;20.30;25.50;98091.44;5021643;28;619;-75
2020/12/09 03:20:55;;;;;;;;;;;;;;;20.41;25.26;98088.41;5022316;28;723;-75
2020/12/09 03:23:20;;;;;;;;;;;;;;;20.79;24.78;98097.34;5021221;28;1906;-75
2020/12/09 03:25:46;;;;;;;;;;;;;;;21.26;24.40;98090.63;5021846;28;924;-75
2020/12/09 03:28:11;;;;;;;;;;;;;;;21.57;23.71;98096.78;5021478;28;1020;-75
2020/12/09 03:30:37;;;;;;;;;;;;;;;21.75;23.62;98096.31;5021838;28;642;-75
2020/12/09 03:33:02;;;;;;;;;;;;;;;21.92;23.46;98097.91;5021409;28;636;-74
2020/12/09 03:35:28;;;;;;;;;;;;;;;22.14;22.94;98098.16;5021405;28;1046;-75
2020/12/09 03:37:53;;;;;;;;;;;;;;;21.98;23.31;98087.63;5021280;28;895;-75
2020/12/09 03:40:19;;;;;;;;;;;;;;;22.39;22.77;98085.34;5021245;28;1078;-75
2020/12/09 03:42:44;;;;;;;;;;;;;;;22.15;22.59;98077.06;5021490;28;663;-75
2020/12/09 03:45:10;;;;;;;;;;;;;;;22.29;22.69;98075.88;5021390;28;1985;-75
2020/12/09 03:47:35;;;;;;;;;;;;;;;22.42;22.51;98075.91;5021716;28;619;-75
2020/12/09 03:50:02;;;;;;;;;;;;;;;22.41;22.24;98072.28;5021196;28;1093;-75
2020/12/09 03:52:27;;;;;;;;;;;;;;;22.32;22.55;98075.75;5021375;28;929;-75
2020/12/09 03:54:53;;;;;;;;;;;;;;;22.32;22.29;98074.97;5021048;28;1058;-75
2020/12/09 03:57:18;;;;;;;;;;;;;;;22.56;21.95;98061.31;5021599;28;675;-75
2020/12/09 03:59:43;;;;;;;;;;;;;;;22.27;22.48;98070.63;5021085;28;768;-75
2020/12/09 04:02:09;;;;;;;;;;;;;;;22.54;21.88;98070.28;5020870;28;944;-75
2020/12/09 04:04:34;;;;;;;;;;;;;;;22.66;22.05;98077.22;5020590;28;1915;-75
2020/12/09 04:07:00;;;;;;;;;;;;;;;22.52;21.67;98075.59;5021260;28;943;-75
2020/12/09 04:09:25;;;;;;;;;;;;;;;22.70;21.59;98075.09;5020893;28;682;-75
2020/12/09 04:11:51;;;;;;;;;;;;;;;22.65;21.88;98075.66;5021116;28;678;-74
2020/12/09 04:14:16;;;;;;;;;;;;;;;22.71;21.59;98073.84;5020997;28;623;-75
2020/12/09 04:16:42;;;;;;;;;;;;;;;22.71;21.61;98073.03;5020669;28;954;-74
2020/12/09 04:19:07;;;;;;;;;;;;;;;22.68;21.78;98077.56;5020378;28;911;-74
2020/12/09 04:21:32;;;;;;;;;;;;;;;22.87;21.43;98087.13;5020785;28;1007;-74
2020/12/09 04:23:58;;;;;;;;;;;;;;;22.66;21.86;98088.56;5020660;28;1902;-75
2020/12/09 04:26:23;;;;;;;;;;;;;;;22.82;21.43;98090.53;5020766;28;737;-75
2020/12/09 04:28:49;;;;;;;;;;;;;;;22.76;21.36;98090.31;5019703;28;1070;-75
2020/12/09 04:31:14;;;;;;;;;;;;;;;22.92;21.59;98095.13;5020407;28;1072;-75
2020/12/09 04:33:42;;;;;;;;;;;;;;;22.76;21.42;98087.47;5020346;28;866;-75
2020/12/09 04:36:07;;;;;;;;;;;;;;;22.74;21.44;98089.16;5003941;28;969;-74
2020/12/09 04:38:33;;;;;;;;;;;;;;;22.71;21.68;98101.41;5019896;28;686;-74
2020/12/09 04:40:58;;;;;;;;;;;;;;;22.75;21.53;98097.22;5020572;28;659;-75
2020/12/09 04:43:23;;;;;;;;;;;;;;;22.51;21.95;98088.19;5020453;28;1907;-74
2020/12/09 04:45:49;;;;;;;;;;;;;;;21.74;22.85;98098.34;5020800;28;615;-75
2020/12/09 04:48:15;;;;;;;;;;;;;;;21.36;23.62;98105.78;5019808;28;997;-75
2020/12/09 04:50:50;;;;;;;;;;;;;;;21.82;22.85;98118.81;5018937;28;915;-75
2020/12/09 04:53:21;;;;;;;;;;;;;;;22.44;22.04;98115.97;5020416;28;958;-74
2020/12/09 04:55:56;;;;;;;;;;;;;;;22.62;21.79;98119.06;5020873;28;602;-75
2020/12/09 04:58:23;;;;;;;;;;;;;;;22.54;21.88;98115.66;5019697;28;690;-75
2020/12/09 05:00:49;;;;;;;;;;;;;;;22.63;21.85;98117.81;5020462;28;928;-75
2020/12/09 05:03:15;;;;;;;;;;;;;;;22.68;21.48;98119.31;5019349;28;1981;-76
2020/12/09 05:05:40;;;;;;;;;;;;;;;22.76;21.43;98124.34;5020610;28;895;-76
2020/12/09 05:08:10;;;;;;;;;;;;;;;22.65;21.71;98128.75;5020580;28;1059;-75
2020/12/09 05:10:35;;;;;;;;;;;;;;;22.70;21.52;98128.97;5019643;28;1073;-75
2020/12/09 05:13:01;;;;;;;;;;;;;;;22.70;21.59;98128.97;5020161;28;1160;-76
2020/12/09 05:15:26;;;;;;;;;;;;;;;22.77;21.57;98128.75;5003280;28;1340;-76
2020/12/09 05:18:02;;;;;;;;;;;;;;;22.64;21.29;98119.44;5002863;28;892;-76
2020/12/09 05:20:30;;;;;;;;;;;;;;;21.69;22.64;98124.38;5020106;28;961;-76
2020/12/09 05:22:56;;;;;;;;;;;;;;;21.60;23.02;98121.34;5003666;28;904;-75
2020/12/09 05:25:27;;;;;;;;;;;;;;;22.02;22.34;98107.34;5019990;28;1976;-75
2020/12/09 05:27:53;;;;;;;;;;;;;;;22.32;21.91;98104.09;5020011;28;1021;-75
2020/12/09 05:30:37;;;;;;;;;;;;;;;22.57;21.65;98114.75;5020080;28;635;-75
2020/12/09 05:33:02;;;;;;;;;;;;;;;22.55;21.93;98111.56;5019927;28;927;-75
2020/12/09 05:35:28;;;;;;;;;;;;;;;22.64;21.67;98108.09;5019850;28;870;-76
2020/12/09 05:38:06;;;;;;;;;;;;;;;22.79;21.23;98117.75;5020126;28;678;-75
2020/12/09 05:40:32;;;;;;;;;;;;;;;22.84;21.41;98105.06;5022681;28;662;-75
2020/12/09 05:42:57;;;;;;;;;;;;;;;22.88;21.10;98106.56;5023701;28;567;-75
2020/12/09 05:45:23;;;;;;;;;;;;;;;22.81;21.49;98098.25;5023502;28;2159;-75
2020/12/09 05:47:49;;;;;;;;;;;;;;;22.78;21.67;98104.03;5023358;28;834;-75
2020/12/09 05:50:14;;;;;;;;;;;;;;;22.90;21.45;98114.66;5023576;28;895;-75
2020/12/09 05:52:40;;;;;;;;;;;;;;;22.84;21.19;98117.19;5023799;28;650;-75
2020/12/09 05:55:06;;;;;;;;;;;;;;;22.26;22.03;98103.06;5023416;28;717;-75
2020/12/09 05:57:34;;;;;;;;;;;;;;;21.71;22.86;98110.59;5023497;28;649;-75
2020/12/09 05:59:59;;;;;;;;;;;;;;;21.73;22.52;98108.09;5023295;28;654;-75
2020/12/09 06:02:28;;;;;;;;;;;;;;;22.29;21.99;98105.03;5023693;28;627;-76
2020/12/09 06:04:57;;;;;;;;;;;;;;;22.58;21.74;98119.16;5022988;28;1977;-75
2020/12/09 06:07:23;;;;;;;;;;;;;;;22.74;21.34;98124.00;5006253;28;944;-75
2020/12/09 06:10:08;;;;;;;;;;;;;;;22.58;21.49;98116.34;5023135;28;876;-75
2020/12/09 06:12:47;;;;;;;;;;;;;;;22.63;21.63;98112.16;5006092;28;788;-75
2020/12/09 06:15:13;;;;;;;;;;;;;;;22.60;21.48;98113.06;5023185;28;734;-75
2020/12/09 06:17:39;;;;;;;;;;;;;;;22.86;21.02;98114.72;5023282;28;670;-76
2020/12/09 06:20:04;;;;;;;;;;;;;;;22.78;21.28;98113.31;5005675;28;1098;-75
2020/12/09 06:22:33;;;;;;;;;;;;;;;22.65;21.46;98115.34;5022819;28;821;-75
2020/12/09 06:25:02;;;;;;;;;;;;;;;22.55;21.29;98111.56;5003302;28;1906;-75
2020/12/09 06:27:29;;;;;;;;;;;;;;;21.71;22.52;98116.25;5022974;28;879;-75
2020/12/09 06:29:54;;;;;;;;;;;;;;;21.51;22.89;98109.88;5022621;28;995;-75
2020/12/09 06:32:20;;;;;;;;;;;;;;;21.93;22.30;98110.03;5022921;28;698;-75
2020/12/09 06:35:05;;;;;;;;;;;;;;;22.34;21.84;98112.97;5022151;28;854;-75
2020/12/09 06:37:31;;;;;;;;;;;;;;;22.55;21.35;98108.75;5018711;28;834;-75
2020/12/09 06:40:08;;;;;;;;;;;;;;;22.63;21.24;98110.09;5022402;28;646;-76
2020/12/09 06:42:34;;;;;;;;;;;;;;;22.68;21.31;98131.44;5022787;28;631;-75
2020/12/09 06:45:01;;;;;;;;;;;;;;;22.77;20.96;98127.97;5022497;28;1918;-75
2020/12/09 06:47:26;;;;;;;;;;;;;;;22.57;21.47;98139.47;5022813;28;610;-75
2020/12/09 06:49:52;;;;;;;;;;;;;;;22.50;21.24;98136.84;5022266;28;639;-75
2020/12/09 06:52:30;;;;;;;;;;;;;;;22.75;21.21;98142.63;5004366;28;1053;-75
2020/12/09 06:54:56;;;;;;;;;;;;;;;22.04;21.87;98150.22;5021860;28;907;-75
2020/12/09 06:57:50;;;;;;;;;;;;;;;21.63;22.44;98170.66;5022517;28;691;-75
2020/12/09 07:00:17;;;;;;;;;;;;;;;21.97;22.22;98173.06;5013771;28;1125;-76
2020/12/09 07:02:44;;;;;;;;;;;;;;;22.24;21.96;98176.44;5022267;28;690;-76
2020/12/09 07:05:10;;;;;;;;;;;;;;;22.66;21.38;98178.53;5022087;28;2095;-75
2020/12/09 07:07:40;;;;;;;;;;;;;;;22.58;21.36;98178.72;5022027;28;865;-75
2020/12/09 07:10:11;;;;;;;;;;;;;;;22.74;20.90;98174.25;5021694;28;861;-75
2020/12/09 07:12:37;;;;;;;;;;;;;;;22.90;20.91;98170.56;5022293;28;867;-75
2020/12/09 07:15:02;;;;;;;;;;;;;;;22.85;20.86;98169.88;5021946;28;650;-75
2020/12/09 07:17:28;;;;;;;;;;;;;;;22.72;21.01;98173.91;5022163;28;619;-76
2020/12/09 07:19:55;;;;;;;;;;;;;;;22.72;21.03;98169.03;5021620;28;977;-76
2020/12/09 07:22:21;;;;;;;;;;;;;;;22.56;21.23;98169.09;5021862;28;849;-75
2020/12/09 07:24:46;;;;;;;;;;;;;;;21.88;22.07;98187.06;5021732;28;1910;-74
2020/12/09 07:27:12;;;;;;;;;;;;;;;21.56;22.49;98177.31;5021967;28;613;-75
2020/12/09 07:29:38;;;;;;;;;;;;;;;22.04;21.75;98170.03;5021508;28;1019;-75
2020/12/09 07:32:05;;;;;;;;;;;;;;;22.28;21.50;98168.63;5021943;28;626;-75
2020/12/09 07:34:30;;;;;;;;;;;;;;;22.69;21.04;98169.94;5021328;28;835;-75
2020/12/09 07:36:56;;;;;;;;;;;;;;;22.69;20.89;98178.44;5020510;28;1184;-75
2020/12/09 07:39:32;;;;;;;;;;;;;;;22.74;20.79;98194.09;5021504;28;868;-75
2020/12/09 07:41:58;;;;;;;;;;;;;;;22.58;21.08;98192.09;5004420;28;1110;-75
2020/12/09 07:44:24;;;;;;;;;;;;;;;22.73;21.02;98184.78;5004600;28;1983;-75
2020/12/09 07:46:56;;;;;;;;;;;;;;;21.76;22.09;98186.53;5021782;28;637;-75
2020/12/09 07:49:21;;;;;;;;;;;;;;;21.32;22.40;98182.28;5020847;28;942;-75
2020/12/09 07:51:47;;;;;;;;;;;;;;;21.62;22.32;98192.53;5021201;28;890;-75
2020/12/09 07:54:13;;;;;;;;;;;;;;;22.28;21.36;98188.47;5020495;28;1085;-75
2020/12/09 07:56:39;;;;;;;;;;;;;;;22.44;21.12;98181.97;5004769;28;646;-74
2020/12/09 07:59:04;;;;;;;;;;;;;;;22.47;21.16;98194.44;5021079;28;679;-75
2020/12/09 08:01:29;;;;;;;;;;;;;;;22.60;21.07;98192.47;5021555;28;724;-75
2020/12/09 08:03:55;;;;;;;;;;;;;;;22.87;20.43;98194.94;5020674;28;1902;-76
2020/12/09 08:06:23;;;;;;;;;;;;;;;22.83;20.75;98195.03;5021282;28;841;-76
2020/12/09 08:08:50;;;;;;;;;;;;;;;22.64;20.97;98187.50;5020915;28;891;-76
2020/12/09 08:11:16;;;;;;;;;;;;;;;22.16;21.14;98183.50;5021509;28;654;-75
2020/12/09 08:13:41;;;;;;;;;;;;;;;21.55;22.21;98181.34;5003424;28;858;-75
2020/12/09 08:16:11;;;;;;;;;;;;;;;21.26;22.79;98181.97;5021340;28;610;-76
2020/12/09 08:18:37;;;;;;;;;;;;;;;21.95;22.13;98175.53;5020515;28;1112;-75
2020/12/09 08:21:03;;;;;;;;;;;;;;;22.40;22.11;98186.16;5020883;28;833;-75
2020/12/09 08:23:41;;;;;;;;;;;;;;;22.52;22.59;98191.88;5020390;28;1910;-75
2020/12/09 08:26:06;;;;;;;;;;;;;;;21.81;23.56;98188.81;5020977;28;635;-76
2020/12/09 08:28:33;;;;;;;;;;;;;;;21.66;23.70;98193.25;5020482;28;1022;-75
2020/12/09 08:30:58;;;;;;;;;;;;;;;21.93;23.62;98189.34;5020866;28;1086;-76
2020/12/09 08:33:24;;;;;;;;;;;;;;;22.37;23.12;98179.31;5020310;28;830;-76
2020/12/09 08:35:57;;;;;;;;;;;;;;;22.66;22.74;98185.00;5003669;28;818;-76
2020/12/09 08:38:30;;;;;;;;;;;;;;;22.76;22.42;98178.25;5020549;28;647;-75
2020/12/09 08:40:57;;;;;;;;;;;;;;;22.75;22.82;98187.22;5020920;28;670;-76
2020/12/09 08:43:26;;;;;;;;;;;;;;;22.51;23.02;98183.81;5020436;28;1910;-76
2020/12/09 08:45:51;;;;;;;;;;;;;;;21.88;23.81;98198.38;5021341;28;850;-76
2020/12/09 08:48:18;;;;;;;;;;;;;;;21.69;24.03;98183.84;5020211;28;926;-75
2020/12/09 08:50:45;;;;;;;;;;;;;;;21.67;24.50;98189.16;5021151;28;999;-76
2020/12/09 08:53:13;;;;;;;;;;;;;;;22.09;23.77;98178.81;5020381;28;765;-76
2020/12/09 08:55:39;;;;;;;;;;;;;;;22.40;23.39;98177.63;5020725;28;693;-75
2020/12/09 08:58:04;;;;;;;;;;;;;;;22.60;22.98;98169.78;5020585;28;627;-75
2020/12/09 09:00:30;;;;;;;;;;;;;;;22.53;23.25;98164.31;5020279;28;910;-75
2020/12/09 09:02:56;;;;;;;;;;;;;;;22.71;23.07;98152.47;5020147;28;1015;-76
2020/12/09 09:05:22;;;;;;;;;;;;;;;22.54;22.91;98160.25;5020375;28;1971;-76
2020/12/09 09:07:47;;;;;;;;;;;;;;;21.57;24.27;98173.22;5020606;28;557;-76
2020/12/09 09:10:13;;;;;;;;;;;;;;;21.57;24.40;98176.06;5020396;28;595;-75
2020/12/09 09:12:38;;;;;;;;;;;;;;;21.89;24.45;98188.63;5020082;28;867;-76
2020/12/09 09:15:04;;;;;;;;;;;;;;;22.25;23.99;98183.69;5021638;28;919;-75
2020/12/09 09:17:30;;;;;;;;;;;;;;;22.31;23.73;98179.06;5024568;28;944;-75
2020/12/09 09:19:56;;;;;;;;;;;;;;;22.46;23.36;98165.31;5024064;28;697;-75
2020/12/09 09:22:22;;;;;;;;;;;;;;;22.88;23.05;98163.31;5007346;28;707;-75
2020/12/09 09:24:47;;;;;;;;;;;;;;;21.85;24.19;98154.72;5024105;28;1891;-75
2020/12/09 09:27:13;;;;;;;;;;;;;;;21.62;24.61;98158.53;5024020;28;848;-75
2020/12/09 09:29:38;;;;;;;;;;;;;;;21.45;24.79;98148.41;5023553;28;1167;-75
2020/12/09 09:32:04;;;;;;;;;;;;;;;22.02;24.19;98158.34;5024325;28;1051;-75
2020/12/09 09:34:30;;;;;;;;;;;;;;;22.38;23.77;98149.72;5023937;28;649;-76
2020/12/09 09:36:55;;;;;;;;;;;;;;;22.48;23.59;98150.66;5024342;28;699;-76
2020/12/09 09:39:21;;;;;;;;;;;;;;;22.58;23.66;98143.91;5023746;28;600;-76
2020/12/09 09:41:46;;;;;;;;;;;;;;;22.86;23.18;98143.09;5023975;28;965;-76
2020/12/09 09:44:12;;;;;;;;;;;;;;;21.99;23.92;98139.41;5023368;28;1907;-75
2020/12/09 09:46:38;;;;;;;;;;;;;;;21.56;24.70;98137.66;5023814;28;828;-75
2020/12/09 09:49:04;;;;;;;;;;;;;;;21.47;25.37;98131.81;5023587;28;675;-76
2020/12/09 09:51:29;;;;;;;;;;;;;;;22.13;24.10;98141.13;5023828;28;691;-75
2020/12/09 09:53:55;;;;;;;;;;;;;;;22.48;23.67;98136.50;5023564;28;655;-75
2020/12/09 09:56:20;;;;;;;;;;;;;;;22.46;23.60;98136.16;5023306;28;905;-75
2020/12/09 09:58:46;;;;;;;;;;;;;;;22.68;23.29;98131.44;5023086;28;917;-75
2020/12/09 10:01:13;;;;;;;;;;;;;;;22.68;23.29;98136.34;5023707;28;1091;-75
2020/12/09 10:03:38;;;;;;;;;;;;;;;22.67;23.40;98129.88;5006135;28;1899;-75
2020/12/09 10:06:04;;;;;;;;;;;;;;;22.19;24.01;98134.44;5023662;28;655;-75
2020/12/09 10:08:29;;;;;;;;;;;;;;;21.69;24.44;98124.38;5022745;28;852;-76
2020/12/09 10:10:55;;;;;;;;;;;;;;;21.32;25.18;98126.47;5023980;28;872;-76
2020/12/09 10:13:20;;;;;;;;;;;;;;;21.98;24.59;98129.31;5023034;28;957;-75
2020/12/09 10:15:46;;;;;;;;;;;;;;;22.34;24.14;98124.31;5023279;28;729;-76
2020/12/09 10:18:11;;;;;;;;;;;;;;;22.49;23.50;98118.25;5022941;28;655;-76
2020/12/09 10:20:37;;;;;;;;;;;;;;;22.75;23.48;98119.91;5023166;28;661;-76
2020/12/09 10:23:02;;;;;;;;;;;;;;;22.30;23.55;98111.47;5022605;28;898;-75
2020/12/09 10:25:28;;;;;;;;;;;;;;;22.01;24.47;98111.41;5022374;28;1984;-75
2020/12/09 10:27:54;;;;;;;;;;;;;;;21.75;24.72;98107.66;5021897;28;1036;-75
2020/12/09 10:30:19;;;;;;;;;;;;;;;21.92;24.56;98105.59;5023009;28;718;-74
2020/12/09 10:32:46;;;;;;;;;;;;;;;22.28;24.05;98106.28;5022863;28;662;-75
2020/12/09 10:35:12;;;;;;;;;;;;;;;22.76;23.37;98110.16;5005246;28;1054;-75
2020/12/09 10:37:39;;;;;;;;;;;;;;;22.93;23.37;98112.94;5022534;28;1144;-75
2020/12/09 10:40:05;;;;;;;;;;;;;;;22.94;23.14;98109.63;5022790;28;980;-76
2020/12/09 10:42:30;;;;;;;;;;;;;;;22.33;23.71;98105.72;5022253;28;1132;-75
2020/12/09 10:44:56;;;;;;;;;;;;;;;21.66;24.75;98096.97;5022499;28;1902;-75
2020/12/09 10:47:21;;;;;;;;;;;;;;;21.44;25.29;98101.53;5022726;28;742;-75
2020/12/09 10:49:47;;;;;;;;;;;;;;;21.97;24.99;98090.91;5022228;28;938;-75
2020/12/09 10:52:12;;;;;;;;;;;;;;;22.47;24.08;98090.34;5022367;28;794;-75
2020/12/09 10:54:38;;;;;;;;;;;;;;;22.72;23.34;98097.31;5005328;28;909;-75
2020/12/09 10:57:03;;;;;;;;;;;;;;;22.61;23.99;98097.63;5022619;28;638;-76
2020/12/09 10:59:29;;;;;;;;;;;;;;;22.79;23.74;98103.56;5005385;28;647;-76
2020/12/09 11:01:54;;;;;;;;;;;;;;;22.10;24.31;98097.41;5022364;28;655;-75
2020/12/09 11:04:20;;;;;;;;;;;;;;;21.69;24.80;98096.06;5021282;28;1911;-75
2020/12/09 11:06:46;;;;;;;;;;;;;;;21.03;25.87;98097.22;5021875;28;1330;-75
2020/12/09 11:09:11;;;;;;;;;;;;;;;22.15;24.65;98091.22;5022044;28;867;-75
2020/12/09 11:11:37;;;;;;;;;;;;;;;22.28;24.45;98094.94;5022220;28;775;-75
2020/12/09 11:14:03;;;;;;;;;;;;;;;22.65;23.64;98098.34;5029196;28;1119;-75
2020/12/09 11:16:29;;;;;;;;;;;;;;;22.53;24.17;98085.69;5014001;28;1155;-73
2020/12/09 11:18:55;;;;;;;;;;;;;;;22.81;23.77;98089.75;5012131;28;1250;-75
2020/12/09 11:21:21;;;;;;;;;;;;;;;22.77;23.68;98093.94;4997595;28;1419;-75
2020/12/09 11:23:47;;;;;;;;;;;;;;;21.88;24.80;98087.91;5012881;28;1902;-74
2020/12/09 11:26:13;;;;;;;;;;;;;;;21.65;25.21;98081.19;5027589;28;1104;-75
2020/12/09 11:28:39;;;;;;;;;;;;;;;21.77;25.10;98088.97;5030168;28;1233;-74
2020/12/09 11:31:05;;;;;;;;;;;;;;;22.19;24.51;98076.97;5029587;28;1214;-74
2020/12/09 11:33:30;;;;;;;;;;;;;;;22.51;24.22;98076.06;5030564;28;1123;-74
2020/12/09 11:35:57;;;;;;;;;;;;;;;22.42;24.37;98073.06;5028528;28;1202;-74
2020/12/09 11:38:28;;;;;;;;;;;;;;;22.55;24.23;98062.56;5030381;28;1147;-74
2020/12/09 11:40:54;;;;;;;;;;;;;;;22.62;24.06;98056.69;5029094;28;1213;-74
2020/12/09 11:43:20;;;;;;;;;;;;;;;21.62;24.96;98050.16;5013572;28;1911;-75
2020/12/09 11:45:46;;;;;;;;;;;;;;;21.36;25.51;98054.84;5030231;28;1186;-73
2020/12/09 11:48:12;;;;;;;;;;;;;;;21.13;26.11;98048.06;5028701;28;1143;-75
2020/12/09 11:50:39;;;;;;;;;;;;;;;22.03;25.09;98029.63;5026380;28;1214;-74
2020/12/09 11:53:04;;;;;;;;;;;;;;;22.15;24.65;98026.06;5012429;28;1273;-74
2020/12/09 11:55:30;;;;;;;;;;;;;;;22.46;24.16;98022.75;5030478;28;1139;-74
2020/12/09 11:57:55;;;;;;;;;;;;;;;22.57;23.95;98026.84;5026149;28;1162;-74
2020/12/09 12:00:21;;;;;;;;;;;;;;;22.60;23.95;98028.00;5030152;28;1186;-74
2020/12/09 12:02:46;;;;;;;;;;;;;;;22.03;24.56;98029.63;5028364;28;1325;-74
2020/12/09 12:05:11;;;;;;;;;;;;;;;21.74;25.31;98015.44;5030025;28;1968;-74
2020/12/09 12:07:37;;;;;;;;;;;;;;;21.58;25.61;98017.03;5030032;28;1238;-75
2020/12/09 12:10:05;;;;;;;;;;;;;;;21.94;25.23;98018.13;5023084;28;1219;-75
2020/12/09 12:12:31;;;;;;;;;;;;;;;22.20;24.48;98019.84;5020654;28;1287;-75
2020/12/09 12:14:56;;;;;;;;;;;;;;;22.49;24.29;98027.53;5020636;28;1146;-75
2020/12/09 12:17:22;;;;;;;;;;;;;;;22.32;24.26;98030.41;5020374;28;1133;-75
2020/12/09 12:19:47;;;;;;;;;;;;;;;21.93;24.86;98025.03;5027721;28;1082;-75
2020/12/09 12:22:13;;;;;;;;;;;;;;;21.29;25.68;98022.59;5040958;28;1134;-75
2020/12/09 12:24:39;;;;;;;;;;;;;;;21.73;25.30;98028.78;5040545;28;1963;-75
2020/12/09 12:27:04;;;;;;;;;;;;;;;21.75;25.45;98026.31;5040723;28;641;-75
2020/12/09 12:29:29;;;;;;;;;;;;;;;22.20;24.60;98036.84;5039705;28;1007;-75
2020/12/09 12:31:56;;;;;;;;;;;;;;;22.36;24.53;98028.28;5035678;28;1183;-76
2020/12/09 12:34:22;;;;;;;;;;;;;;;22.52;24.07;98020.94;5029427;28;1205;-75
2020/12/09 12:36:48;;;;;;;;;;;;;;;22.57;24.04;98035.34;5028513;28;1218;-75
2020/12/09 12:39:14;;;;;;;;;;;;;;;22.69;23.90;98030.97;5030173;28;1091;-75
2020/12/09 12:41:42;;;;;;;;;;;;;;;22.18;24.42;98038.56;5028061;28;1174;-75
2020/12/09 12:44:07;;;;;;;;;;;;;;;19.75;25.60;97751.31;5031090;28;1918;-75
2020/12/09 12:46:33;;;;;;;;;;;;;;;21.11;26.07;98027.13;5032567;28;1017;-76
2020/12/09 12:48:58;;;;;;;;;;;;;;;22.09;25.12;98031.44;5031636;28;1132;-75
2020/12/09 12:51:24;;;;;;;;;;;;;;;22.49;24.33;98033.19;5032693;28;1239;-76
2020/12/09 12:53:49;;;;;;;;;;;;;;;22.55;24.25;98020.03;5020916;28;1187;-76
2020/12/09 12:56:16;;;;;;;;;;;;;;;22.51;24.32;98025.03;5023690;28;1111;-76
2020/12/09 12:58:41;;;;;;;;;;;;;;;22.63;23.94;98018.56;5028676;28;1092;-74
2020/12/09 13:01:07;;;;;;;;;;;;;;;22.60;24.04;98022.31;5012654;28;1171;-74